Terminal Aerodrome Forecast
Issued by NWS

Home | Current Version | Previous Version | Graphics & Text | Print | Product List | Glossary On
Versions: 1 2 3 4 5 6 7 8 9 10 11 12 13 14 15 16 17
000
FTUS43 KBIS 231131
TAFJMS
TAF
KJMS 231131Z 2312/2412 12006KT P6SM FEW050 SCT250
     FM232100 14014KT P6SM FEW050 SCT070
     FM232200 14014G22KT P6SM VCTS FEW050CB SCT120
     FM240000 14014KT 6SM -SHRA VCTS BKN045CB BKN120
     FM240600 15011KT P6SM BKN150=

USA.gov is the U.S. government's official web portal to all federal, state and local government web resources and services.